EZY501C EGAA-EGGD
Flight info
| Callsign | EZY501C |
|---|---|
| Flight time | 0h 45m |
| Altitude | 33000 |
| Route | LISBO DCT RINGA DCT BABGU DCT ETIGA DCT INKOB Q39 NOMSU UQ4 WAL N862 KARNO/N0444F320 DCT ALHUP DCT LUCSA/N0403F230 N862 WEVBE |
| Aircraft | A320/M-SDE3FGHIRWY/LB1 |
Departure
| Time | 2026-05-04 19:44 |
|---|---|
| Airport | Belfast International Airport (EGAA) |
Arrival
| Time | 2026-05-04 20:29 |
|---|---|
| Airport | Bristol Airport (EGGD) |
| Time | Latitude | Longitude | Altitude | Speed | Heading |
|---|---|---|---|---|---|
| 2026-05-04 19:21 | 54.66073 | -6.21323 | 251 ft | 0 kts | 243° |
| 2026-05-04 19:28 | 54.66073 | -6.21322 | 250 ft | 0 kts | 243° |
| 2026-05-04 19:34 | 54.66077 | -6.21311 | 251 ft | 0 kts | 243° |
| 2026-05-04 19:34 | 54.66086 | -6.21281 | 251 ft | 3 kts | 236° |
| 2026-05-04 19:34 | 54.66098 | -6.21253 | 252 ft | 3 kts | 227° |
| 2026-05-04 19:34 | 54.66107 | -6.21237 | 252 ft | 0 kts | 223° |
| 2026-05-04 19:37 | 54.66096 | -6.21231 | 252 ft | 4 kts | 167° |
| 2026-05-04 19:37 | 54.66056 | -6.21208 | 252 ft | 6 kts | 178° |
| 2026-05-04 19:37 | 54.66022 | -6.21254 | 252 ft | 8 kts | 237° |
| 2026-05-04 19:38 | 54.65983 | -6.21391 | 249 ft | 17 kts | 244° |
| 2026-05-04 19:38 | 54.65926 | -6.21600 | 246 ft | 21 kts | 246° |
| 2026-05-04 19:38 | 54.65859 | -6.21851 | 241 ft | 25 kts | 245° |
| 2026-05-04 19:38 | 54.65786 | -6.22134 | 238 ft | 25 kts | 250° |
| 2026-05-04 19:39 | 54.65761 | -6.22383 | 229 ft | 19 kts | 263° |
| 2026-05-04 19:39 | 54.65746 | -6.22634 | 221 ft | 16 kts | 265° |
| 2026-05-04 19:39 | 54.65725 | -6.22853 | 219 ft | 20 kts | 248° |
| 2026-05-04 19:39 | 54.65644 | -6.23056 | 220 ft | 18 kts | 233° |
| 2026-05-04 19:40 | 54.65582 | -6.23201 | 222 ft | 13 kts | 233° |
| 2026-05-04 19:40 | 54.65532 | -6.23309 | 221 ft | 11 kts | 221° |
| 2026-05-04 19:40 | 54.65467 | -6.23365 | 221 ft | 10 kts | 201° |
| 2026-05-04 19:40 | 54.65425 | -6.23394 | 220 ft | 0 kts | 201° |
| 2026-05-04 19:41 | 54.65424 | -6.23394 | 220 ft | 0 kts | 201° |
| 2026-05-04 19:42 | 54.65412 | -6.23402 | 224 ft | 6 kts | 198° |
| 2026-05-04 19:42 | 54.65361 | -6.23394 | 219 ft | 7 kts | 160° |
| 2026-05-04 19:42 | 54.65317 | -6.23354 | 225 ft | 7 kts | 143° |
| 2026-05-04 19:42 | 54.65301 | -6.23252 | 220 ft | 10 kts | 77° |
| 2026-05-04 19:43 | 54.65324 | -6.23157 | 223 ft | 8 kts | 65° |
| 2026-05-04 19:43 | 54.65410 | -6.22840 | 229 ft | 65 kts | 65° |
| 2026-05-04 19:43 | 54.65701 | -6.21768 | 238 ft | 129 kts | 65° |
| 2026-05-04 19:43 | 54.66130 | -6.20151 | 538 ft | 152 kts | 63° |
| 2026-05-04 19:44 | 54.66555 | -6.18487 | 1198 ft | 158 kts | 63° |
| 2026-05-04 19:44 | 54.66983 | -6.16571 | 1528 ft | 185 kts | 78° |
| 2026-05-04 19:44 | 54.66778 | -6.14229 | 1889 ft | 214 kts | 117° |
| 2026-05-04 19:44 | 54.65703 | -6.12278 | 2338 ft | 239 kts | 152° |
| 2026-05-04 19:45 | 54.64041 | -6.11445 | 2868 ft | 259 kts | 175° |
| 2026-05-04 19:45 | 54.62217 | -6.11201 | 3760 ft | 265 kts | 178° |
| 2026-05-04 19:45 | 54.60355 | -6.11016 | 4760 ft | 269 kts | 179° |
| 2026-05-04 19:45 | 54.58512 | -6.10832 | 5717 ft | 273 kts | 179° |
| 2026-05-04 19:46 | 54.56626 | -6.10640 | 6662 ft | 277 kts | 179° |
| 2026-05-04 19:46 | 54.54698 | -6.10441 | 7548 ft | 281 kts | 179° |
| 2026-05-04 19:46 | 54.52724 | -6.10239 | 8446 ft | 285 kts | 179° |
| 2026-05-04 19:46 | 54.50758 | -6.09600 | 9310 ft | 293 kts | 159° |
| 2026-05-04 19:47 | 54.49047 | -6.07667 | 10150 ft | 300 kts | 134° |
| 2026-05-04 19:47 | 54.47915 | -6.04594 | 10704 ft | 316 kts | 110° |
| 2026-05-04 19:47 | 54.47255 | -6.00840 | 10963 ft | 340 kts | 105° |
| 2026-05-04 19:47 | 54.46597 | -5.96819 | 11388 ft | 356 kts | 105° |
| 2026-05-04 19:48 | 54.45920 | -5.92667 | 12093 ft | 362 kts | 105° |
| 2026-05-04 19:48 | 54.45237 | -5.88521 | 12864 ft | 366 kts | 106° |
| 2026-05-04 19:48 | 54.44536 | -5.84323 | 13625 ft | 370 kts | 106° |
| 2026-05-04 19:48 | 54.43810 | -5.80033 | 14337 ft | 373 kts | 106° |
| 2026-05-04 19:49 | 54.43073 | -5.75724 | 15014 ft | 377 kts | 107° |
| 2026-05-04 19:49 | 54.42326 | -5.71395 | 15692 ft | 380 kts | 107° |
| 2026-05-04 19:49 | 54.41570 | -5.67038 | 16370 ft | 383 kts | 107° |
| 2026-05-04 19:49 | 54.40801 | -5.62620 | 17030 ft | 387 kts | 106° |
| 2026-05-04 19:50 | 54.39938 | -5.58282 | 17676 ft | 390 kts | 113° |
| 2026-05-04 19:50 | 54.38654 | -5.54158 | 18327 ft | 394 kts | 123° |
| 2026-05-04 19:50 | 54.37082 | -5.50275 | 18903 ft | 397 kts | 125° |
| 2026-05-04 19:50 | 54.35494 | -5.46371 | 19481 ft | 400 kts | 125° |
| 2026-05-04 19:51 | 54.33897 | -5.42436 | 20068 ft | 403 kts | 125° |
| 2026-05-04 19:51 | 54.32285 | -5.38470 | 20647 ft | 407 kts | 125° |
| 2026-05-04 19:51 | 54.30659 | -5.34475 | 21212 ft | 410 kts | 125° |
| 2026-05-04 19:51 | 54.29036 | -5.30505 | 21753 ft | 413 kts | 125° |
| 2026-05-04 19:52 | 54.27369 | -5.26476 | 22294 ft | 416 kts | 126° |
| 2026-05-04 19:52 | 54.25607 | -5.22529 | 22825 ft | 419 kts | 128° |
| 2026-05-04 19:52 | 54.23759 | -5.18644 | 23335 ft | 422 kts | 130° |
| 2026-05-04 19:52 | 54.21861 | -5.14793 | 23800 ft | 425 kts | 130° |
| 2026-05-04 19:53 | 54.19933 | -5.10924 | 24207 ft | 428 kts | 130° |
| 2026-05-04 19:53 | 54.18003 | -5.07031 | 24609 ft | 431 kts | 130° |
| 2026-05-04 19:53 | 54.16072 | -5.03099 | 25006 ft | 433 kts | 129° |
| 2026-05-04 19:53 | 54.14142 | -4.99136 | 25406 ft | 435 kts | 129° |
| 2026-05-04 19:54 | 54.12210 | -4.95145 | 25785 ft | 438 kts | 129° |
| 2026-05-04 19:54 | 54.10265 | -4.91112 | 26164 ft | 440 kts | 129° |
| 2026-05-04 19:54 | 54.08315 | -4.87076 | 26545 ft | 442 kts | 129° |
| 2026-05-04 19:54 | 54.06350 | -4.83026 | 26914 ft | 444 kts | 129° |
| 2026-05-04 19:55 | 54.04374 | -4.78967 | 27275 ft | 447 kts | 129° |
| 2026-05-04 19:55 | 54.02422 | -4.74834 | 27631 ft | 448 kts | 127° |
| 2026-05-04 19:55 | 54.00521 | -4.70619 | 27986 ft | 450 kts | 126° |
| 2026-05-04 19:55 | 53.98647 | -4.66340 | 28331 ft | 452 kts | 126° |
| 2026-05-04 19:56 | 53.96800 | -4.62085 | 28654 ft | 454 kts | 126° |
| 2026-05-04 19:56 | 53.94906 | -4.57747 | 28962 ft | 456 kts | 126° |
| 2026-05-04 19:56 | 53.92999 | -4.53432 | 29283 ft | 458 kts | 126° |
| 2026-05-04 19:56 | 53.91068 | -4.49117 | 29570 ft | 460 kts | 126° |
| 2026-05-04 19:57 | 53.89117 | -4.44796 | 29862 ft | 461 kts | 126° |
| 2026-05-04 19:57 | 53.87156 | -4.40473 | 30144 ft | 463 kts | 126° |
| 2026-05-04 19:57 | 53.85232 | -4.36088 | 30374 ft | 464 kts | 124° |
| 2026-05-04 19:57 | 53.83398 | -4.31681 | 30664 ft | 463 kts | 123° |
| 2026-05-04 19:58 | 53.81589 | -4.27186 | 30992 ft | 461 kts | 123° |
| 2026-05-04 19:58 | 53.79802 | -4.22684 | 31316 ft | 459 kts | 122° |
| 2026-05-04 19:58 | 53.78018 | -4.18211 | 31633 ft | 458 kts | 123° |
| 2026-05-04 19:58 | 53.76221 | -4.13766 | 31953 ft | 457 kts | 123° |
| 2026-05-04 19:59 | 53.74415 | -4.09357 | 32270 ft | 456 kts | 123° |
| 2026-05-04 19:59 | 53.72598 | -4.04960 | 32592 ft | 455 kts | 123° |
| 2026-05-04 19:59 | 53.70782 | -4.00589 | 32904 ft | 454 kts | 123° |
| 2026-05-04 19:59 | 53.68969 | -3.96233 | 33066 ft | 453 kts | 123° |
| 2026-05-04 20:00 | 53.67166 | -3.91899 | 33090 ft | 450 kts | 123° |
| 2026-05-04 20:00 | 53.63574 | -3.83271 | 33089 ft | 448 kts | 123° |
| 2026-05-04 20:01 | 53.59997 | -3.74727 | 33080 ft | 447 kts | 123° |
| 2026-05-04 20:01 | 53.56419 | -3.66165 | 33087 ft | 446 kts | 123° |
| 2026-05-04 20:02 | 53.52836 | -3.57634 | 33087 ft | 446 kts | 123° |
| 2026-05-04 20:02 | 53.49244 | -3.49143 | 33087 ft | 445 kts | 123° |
| 2026-05-04 20:03 | 53.46054 | -3.40374 | 33093 ft | 441 kts | 111° |
| 2026-05-04 20:03 | 53.43659 | -3.30899 | 33093 ft | 440 kts | 111° |
| 2026-05-04 20:04 | 53.41185 | -3.21493 | 33087 ft | 441 kts | 116° |
| 2026-05-04 20:04 | 53.37414 | -3.13408 | 33087 ft | 446 kts | 136° |
| 2026-05-04 20:05 | 53.32196 | -3.07843 | 33084 ft | 450 kts | 152° |
| 2026-05-04 20:05 | 53.29362 | -3.05575 | 32687 ft | 452 kts | 152° |
| 2026-05-04 20:05 | 53.26524 | -3.03302 | 32255 ft | 451 kts | 152° |
| 2026-05-04 20:05 | 53.23698 | -3.01036 | 31811 ft | 451 kts | 152° |
| 2026-05-04 20:06 | 53.20862 | -2.98761 | 31379 ft | 451 kts | 152° |
| 2026-05-04 20:06 | 53.18028 | -2.96496 | 30952 ft | 452 kts | 152° |
| 2026-05-04 20:06 | 53.15194 | -2.94244 | 30527 ft | 452 kts | 152° |
| 2026-05-04 20:06 | 53.12351 | -2.91995 | 30114 ft | 452 kts | 152° |
| 2026-05-04 20:07 | 53.09413 | -2.90096 | 29632 ft | 455 kts | 161° |
| 2026-05-04 20:07 | 53.06308 | -2.88969 | 29140 ft | 456 kts | 170° |
| 2026-05-04 20:07 | 53.03133 | -2.88669 | 28660 ft | 456 kts | 179° |
| 2026-05-04 20:07 | 53.00017 | -2.88837 | 28203 ft | 453 kts | 180° |
| 2026-05-04 20:08 | 52.96879 | -2.89086 | 27742 ft | 449 kts | 181° |
| 2026-05-04 20:08 | 52.93770 | -2.89378 | 27292 ft | 445 kts | 181° |
| 2026-05-04 20:08 | 52.90691 | -2.89681 | 26847 ft | 441 kts | 182° |
| 2026-05-04 20:08 | 52.87650 | -2.90247 | 26409 ft | 437 kts | 187° |
| 2026-05-04 20:09 | 52.84709 | -2.90985 | 25984 ft | 433 kts | 187° |
| 2026-05-04 20:09 | 52.81742 | -2.91701 | 25563 ft | 428 kts | 187° |
| 2026-05-04 20:09 | 52.78804 | -2.92386 | 25145 ft | 423 kts | 187° |
| 2026-05-04 20:09 | 52.75904 | -2.93046 | 24726 ft | 418 kts | 187° |
| 2026-05-04 20:10 | 52.73031 | -2.93699 | 24328 ft | 414 kts | 188° |
| 2026-05-04 20:10 | 52.70213 | -2.94203 | 23931 ft | 411 kts | 184° |
| 2026-05-04 20:10 | 52.67370 | -2.94431 | 23524 ft | 407 kts | 184° |
| 2026-05-04 20:10 | 52.64553 | -2.94658 | 23047 ft | 404 kts | 184° |
| 2026-05-04 20:11 | 52.61759 | -2.94887 | 22580 ft | 400 kts | 184° |
| 2026-05-04 20:11 | 52.58981 | -2.95119 | 22123 ft | 398 kts | 184° |
| 2026-05-04 20:11 | 52.56223 | -2.95352 | 21671 ft | 395 kts | 184° |
| 2026-05-04 20:11 | 52.53478 | -2.95585 | 21227 ft | 392 kts | 184° |
| 2026-05-04 20:12 | 52.50794 | -2.95811 | 20795 ft | 390 kts | 184° |
| 2026-05-04 20:12 | 52.48092 | -2.96035 | 20426 ft | 388 kts | 184° |
| 2026-05-04 20:12 | 52.45403 | -2.96252 | 20066 ft | 386 kts | 184° |
| 2026-05-04 20:12 | 52.42718 | -2.96468 | 19725 ft | 385 kts | 183° |
| 2026-05-04 20:13 | 52.40051 | -2.96684 | 19383 ft | 383 kts | 183° |
| 2026-05-04 20:13 | 52.37389 | -2.96903 | 19037 ft | 382 kts | 183° |
| 2026-05-04 20:13 | 52.34739 | -2.97120 | 18707 ft | 380 kts | 183° |
| 2026-05-04 20:13 | 52.32126 | -2.97332 | 18369 ft | 379 kts | 183° |
| 2026-05-04 20:14 | 52.29461 | -2.97553 | 17985 ft | 378 kts | 183° |
| 2026-05-04 20:14 | 52.26873 | -2.97769 | 17620 ft | 376 kts | 183° |
| 2026-05-04 20:14 | 52.24263 | -2.97984 | 17242 ft | 374 kts | 183° |
| 2026-05-04 20:14 | 52.21664 | -2.98199 | 16875 ft | 372 kts | 183° |
| 2026-05-04 20:15 | 52.19079 | -2.98411 | 16510 ft | 371 kts | 183° |
| 2026-05-04 20:15 | 52.16511 | -2.98619 | 16149 ft | 369 kts | 183° |
| 2026-05-04 20:15 | 52.13942 | -2.98825 | 15983 ft | 368 kts | 183° |
| 2026-05-04 20:15 | 52.11379 | -2.99031 | 15832 ft | 368 kts | 183° |
| 2026-05-04 20:16 | 52.08863 | -2.99233 | 15685 ft | 367 kts | 183° |
| 2026-05-04 20:16 | 52.06314 | -2.99438 | 15532 ft | 366 kts | 183° |
| 2026-05-04 20:16 | 52.03766 | -2.99640 | 15397 ft | 365 kts | 183° |
| 2026-05-04 20:16 | 52.01267 | -2.99842 | 15265 ft | 352 kts | 183° |
| 2026-05-04 20:17 | 51.98862 | -3.00040 | 15120 ft | 339 kts | 183° |
| 2026-05-04 20:17 | 51.97315 | -3.00154 | 15035 ft | 332 kts | 181° |
| 2026-05-04 20:17 | 51.95044 | -2.99900 | 14756 ft | 326 kts | 171° |
| 2026-05-04 20:17 | 51.92854 | -2.99008 | 14349 ft | 325 kts | 161° |
| 2026-05-04 20:18 | 51.90736 | -2.97714 | 13941 ft | 324 kts | 160° |
| 2026-05-04 20:18 | 51.87946 | -2.96024 | 13344 ft | 322 kts | 160° |
| 2026-05-04 20:18 | 51.86523 | -2.95173 | 13047 ft | 321 kts | 160° |
| 2026-05-04 20:18 | 51.84429 | -2.93925 | 12601 ft | 320 kts | 160° |
| 2026-05-04 20:19 | 51.82356 | -2.92692 | 12155 ft | 312 kts | 161° |
| 2026-05-04 20:19 | 51.80390 | -2.91521 | 11732 ft | 299 kts | 161° |
| 2026-05-04 20:19 | 51.78464 | -2.90375 | 11307 ft | 292 kts | 160° |
| 2026-05-04 20:19 | 51.76566 | -2.89248 | 10878 ft | 289 kts | 160° |
| 2026-05-04 20:20 | 51.74682 | -2.88115 | 10470 ft | 287 kts | 160° |
| 2026-05-04 20:20 | 51.72816 | -2.86986 | 10058 ft | 285 kts | 161° |
| 2026-05-04 20:20 | 51.70888 | -2.86437 | 9617 ft | 281 kts | 184° |
| 2026-05-04 20:20 | 51.68958 | -2.86892 | 9168 ft | 280 kts | 193° |
| 2026-05-04 20:21 | 51.67066 | -2.87654 | 8716 ft | 280 kts | 195° |
| 2026-05-04 20:21 | 51.65185 | -2.88477 | 8283 ft | 280 kts | 197° |
| 2026-05-04 20:21 | 51.61481 | -2.90369 | 7416 ft | 278 kts | 198° |
| 2026-05-04 20:22 | 51.59664 | -2.91308 | 6991 ft | 270 kts | 198° |
| 2026-05-04 20:22 | 51.57893 | -2.92226 | 6569 ft | 264 kts | 198° |
| 2026-05-04 20:22 | 51.56182 | -2.93112 | 6141 ft | 261 kts | 198° |
| 2026-05-04 20:22 | 51.54477 | -2.93992 | 5697 ft | 253 kts | 198° |
| 2026-05-04 20:23 | 51.52828 | -2.94841 | 5265 ft | 245 kts | 198° |
| 2026-05-04 20:23 | 51.51218 | -2.95669 | 4836 ft | 241 kts | 198° |
| 2026-05-04 20:23 | 51.49622 | -2.96491 | 4459 ft | 240 kts | 198° |
| 2026-05-04 20:23 | 51.48047 | -2.97319 | 4092 ft | 235 kts | 198° |
| 2026-05-04 20:24 | 51.46498 | -2.98148 | 3790 ft | 234 kts | 198° |
| 2026-05-04 20:24 | 51.44931 | -2.98748 | 3508 ft | 230 kts | 180° |
| 2026-05-04 20:24 | 51.43391 | -2.98289 | 3267 ft | 223 kts | 156° |
| 2026-05-04 20:24 | 51.41960 | -2.97403 | 3062 ft | 218 kts | 157° |
| 2026-05-04 20:25 | 51.40554 | -2.96545 | 2853 ft | 214 kts | 157° |
| 2026-05-04 20:25 | 51.39176 | -2.95698 | 2645 ft | 211 kts | 154° |
| 2026-05-04 20:25 | 51.38043 | -2.94377 | 2525 ft | 196 kts | 124° |
| 2026-05-04 20:25 | 51.37520 | -2.92503 | 2527 ft | 175 kts | 96° |
| 2026-05-04 20:26 | 51.37515 | -2.90637 | 2525 ft | 163 kts | 84° |
| 2026-05-04 20:26 | 51.37589 | -2.88855 | 2484 ft | 159 kts | 84° |
| 2026-05-04 20:26 | 51.37661 | -2.87108 | 2357 ft | 150 kts | 84° |
| 2026-05-04 20:26 | 51.37724 | -2.85530 | 2173 ft | 137 kts | 84° |
| 2026-05-04 20:27 | 51.37781 | -2.84044 | 1970 ft | 132 kts | 84° |
| 2026-05-04 20:27 | 51.37839 | -2.82592 | 1831 ft | 130 kts | 84° |
| 2026-05-04 20:27 | 51.37897 | -2.81160 | 1680 ft | 129 kts | 84° |
| 2026-05-04 20:27 | 51.37956 | -2.79734 | 1499 ft | 129 kts | 84° |
| 2026-05-04 20:28 | 51.38012 | -2.78347 | 1328 ft | 129 kts | 85° |
| 2026-05-04 20:28 | 51.38071 | -2.76908 | 1121 ft | 130 kts | 85° |
| 2026-05-04 20:28 | 51.38129 | -2.75456 | 960 ft | 132 kts | 86° |
| 2026-05-04 20:28 | 51.38189 | -2.73994 | 754 ft | 131 kts | 87° |
| 2026-05-04 20:29 | 51.38243 | -2.72582 | 627 ft | 116 kts | 87° |
| 2026-05-04 20:29 | 51.38281 | -2.71542 | 614 ft | 73 kts | 86° |
| 2026-05-04 20:29 | 51.38307 | -2.70936 | 603 ft | 30 kts | 86° |
| 2026-05-04 20:29 | 51.38319 | -2.70790 | 605 ft | 8 kts | 55° |
| 2026-05-04 20:30 | 51.38361 | -2.70750 | 616 ft | 4 kts | 20° |
| 2026-05-04 20:30 | 51.38371 | -2.70744 | 618 ft | 3 kts | 20° |
| 2026-05-04 20:30 | 51.38410 | -2.70722 | 613 ft | 6 kts | 20° |
| 2026-05-04 20:30 | 51.38445 | -2.70713 | 611 ft | 5 kts | 350° |
| 2026-05-04 20:31 | 51.38468 | -2.70787 | 625 ft | 10 kts | 269° |
| 2026-05-04 20:31 | 51.38465 | -2.70886 | 613 ft | 9 kts | 266° |
| 2026-05-04 20:31 | 51.38461 | -2.70999 | 615 ft | 9 kts | 267° |
| 2026-05-04 20:31 | 51.38462 | -2.71055 | 616 ft | 2 kts | 300° |
| 2026-05-04 20:32 | 51.38474 | -2.71069 | 620 ft | 5 kts | 329° |
| 2026-05-04 20:32 | 51.38516 | -2.71078 | 620 ft | 4 kts | 358° |
| 2026-05-04 20:32 | 51.38544 | -2.71080 | 613 ft | 3 kts | 356° |
| 2026-05-04 20:32 | 51.38547 | -2.71081 | 613 ft | 0 kts | 356° |